Aviation Digital Data Service (ADDS)

Output produced by METARs form (1740 UTC 21 April 2018)
found at http://aviationweather.gov/adds/metars/
 
LHSM 211715Z 17005KT CAVOK 19/10 Q1017 NOSIG
LHSM 211645Z 17005KT CAVOK 22/07 Q1017 NOSIG
LHSM 211615Z 17005KT CAVOK 23/09 Q1018 NOSIG
LHSM 211545Z 17007KT CAVOK 24/07 Q1018 NOSIG
LHSM 211515Z 18007KT CAVOK 24/07 Q1018 NOSIG
LHSM 211445Z 16007KT CAVOK 24/08 Q1018 NOSIG
LHSM 211415Z 16008KT CAVOK 24/07 Q1019 NOSIG
LHSM 211345Z 16008KT CAVOK 24/08 Q1019 NOSIG
LHSM 211315Z 16007KT CAVOK 24/10 Q1019 NOSIG
LHSM 211245Z 16007KT CAVOK 24/10 Q1020 NOSIG
LHSM 211215Z 14005KT CAVOK 24/10 Q1020 NOSIG
LHSM 211145Z 16006KT CAVOK 24/11 Q1020 NOSIG